sensor_id;sensor_type;location;lat;lon;timestamp;P1;durP1;ratioP1;P2;durP2;ratioP2
8881;SDS011;4477;48.736;9.176;2022-08-19T00:00:31;18.03;;;16.20;;
8881;SDS011;4477;48.736;9.176;2022-08-19T00:02:58;17.30;;;15.70;;
8881;SDS011;4477;48.736;9.176;2022-08-19T00:05:25;17.10;;;15.40;;
8881;SDS011;4477;48.736;9.176;2022-08-19T00:07:52;18.13;;;16.37;;
8881;SDS011;4477;48.736;9.176;2022-08-19T00:10:19;17.20;;;15.50;;
8881;SDS011;4477;48.736;9.176;2022-08-19T00:12:48;18.07;;;16.37;;
8881;SDS011;4477;48.736;9.176;2022-08-19T00:15:16;17.07;;;15.37;;
8881;SDS011;4477;48.736;9.176;2022-08-19T00:17:45;18.70;;;15.83;;
8881;SDS011;4477;48.736;9.176;2022-08-19T00:20:15;17.47;;;15.67;;
8881;SDS011;4477;48.736;9.176;2022-08-19T00:22:43;16.33;;;14.83;;
8881;SDS011;4477;48.736;9.176;2022-08-19T00:25:11;17.97;;;16.17;;
8881;SDS011;4477;48.736;9.176;2022-08-19T00:27:38;17.73;;;15.83;;
8881;SDS011;4477;48.736;9.176;2022-08-19T00:30:07;17.87;;;16.17;;
8881;SDS011;4477;48.736;9.176;2022-08-19T00:32:35;17.30;;;15.60;;
8881;SDS011;4477;48.736;9.176;2022-08-19T00:35:03;18.60;;;16.77;;
8881;SDS011;4477;48.736;9.176;2022-08-19T00:37:31;17.20;;;15.53;;
8881;SDS011;4477;48.736;9.176;2022-08-19T00:40:00;18.00;;;16.20;;
8881;SDS011;4477;48.736;9.176;2022-08-19T00:42:29;19.23;;;17.33;;
8881;SDS011;4477;48.736;9.176;2022-08-19T00:44:56;17.40;;;15.77;;
8881;SDS011;4477;48.736;9.176;2022-08-19T00:47:24;18.00;;;16.20;;
8881;SDS011;4477;48.736;9.176;2022-08-19T00:49:52;19.47;;;17.57;;
8881;SDS011;4477;48.736;9.176;2022-08-19T00:52:23;19.03;;;16.97;;
8881;SDS011;4477;48.736;9.176;2022-08-19T00:54:55;18.97;;;17.03;;
8881;SDS011;4477;48.736;9.176;2022-08-19T00:57:24;19.30;;;17.23;;
8881;SDS011;4477;48.736;9.176;2022-08-19T00:59:56;19.20;;;17.20;;
8881;SDS011;4477;48.736;9.176;2022-08-19T01:02:26;19.63;;;17.73;;
8881;SDS011;4477;48.736;9.176;2022-08-19T01:04:56;19.07;;;17.23;;
8881;SDS011;4477;48.736;9.176;2022-08-19T01:07:23;19.77;;;17.77;;
8881;SDS011;4477;48.736;9.176;2022-08-19T01:09:50;19.97;;;17.97;;
8881;SDS011;4477;48.736;9.176;2022-08-19T01:12:17;19.80;;;17.70;;
8881;SDS011;4477;48.736;9.176;2022-08-19T01:14:44;19.77;;;17.73;;
8881;SDS011;4477;48.736;9.176;2022-08-19T01:17:12;21.40;;;19.40;;
8881;SDS011;4477;48.736;9.176;2022-08-19T01:19:42;20.80;;;18.60;;
8881;SDS011;4477;48.736;9.176;2022-08-19T01:22:12;21.50;;;19.30;;
8881;SDS011;4477;48.736;9.176;2022-08-19T01:24:47;20.43;;;18.40;;
8881;SDS011;4477;48.736;9.176;2022-08-19T01:27:14;20.17;;;17.07;;
8881;SDS011;4477;48.736;9.176;2022-08-19T01:29:42;19.10;;;17.20;;
8881;SDS011;4477;48.736;9.176;2022-08-19T01:32:10;18.30;;;16.40;;
8881;SDS011;4477;48.736;9.176;2022-08-19T01:34:39;19.57;;;17.43;;
8881;SDS011;4477;48.736;9.176;2022-08-19T01:37:08;18.63;;;16.73;;
8881;SDS011;4477;48.736;9.176;2022-08-19T01:39:37;19.20;;;17.30;;
8881;SDS011;4477;48.736;9.176;2022-08-19T01:42:07;18.33;;;16.37;;
8881;SDS011;4477;48.736;9.176;2022-08-19T01:44:37;18.97;;;16.83;;
8881;SDS011;4477;48.736;9.176;2022-08-19T01:47:05;20.27;;;17.07;;
8881;SDS011;4477;48.736;9.176;2022-08-19T01:49:34;18.57;;;16.67;;
8881;SDS011;4477;48.736;9.176;2022-08-19T01:52:02;19.23;;;17.10;;
8881;SDS011;4477;48.736;9.176;2022-08-19T01:54:30;19.53;;;17.63;;
8881;SDS011;4477;48.736;9.176;2022-08-19T01:56:58;20.40;;;18.40;;
8881;SDS011;4477;48.736;9.176;2022-08-19T01:59:28;20.83;;;18.67;;
8881;SDS011;4477;48.736;9.176;2022-08-19T02:01:56;19.97;;;17.97;;
8881;SDS011;4477;48.736;9.176;2022-08-19T02:04:23;21.30;;;18.80;;
8881;SDS011;4477;48.736;9.176;2022-08-19T02:06:50;20.40;;;18.40;;
8881;SDS011;4477;48.736;9.176;2022-08-19T02:09:17;22.70;;;19.27;;
8881;SDS011;4477;48.736;9.176;2022-08-19T02:11:44;21.53;;;19.23;;
8881;SDS011;4477;48.736;9.176;2022-08-19T02:14:11;20.60;;;18.47;;
8881;SDS011;4477;48.736;9.176;2022-08-19T02:16:39;21.77;;;19.47;;
8881;SDS011;4477;48.736;9.176;2022-08-19T02:19:06;21.77;;;19.50;;
8881;SDS011;4477;48.736;9.176;2022-08-19T02:21:33;23.30;;;19.57;;
8881;SDS011;4477;48.736;9.176;2022-08-19T02:24:00;22.07;;;19.80;;
8881;SDS011;4477;48.736;9.176;2022-08-19T02:26:28;22.77;;;20.47;;
8881;SDS011;4477;48.736;9.176;2022-08-19T02:28:54;23.17;;;20.50;;
8881;SDS011;4477;48.736;9.176;2022-08-19T02:31:22;22.03;;;19.80;;
8881;SDS011;4477;48.736;9.176;2022-08-19T02:33:52;22.97;;;20.47;;
8881;SDS011;4477;48.736;9.176;2022-08-19T02:36:20;22.03;;;19.83;;
8881;SDS011;4477;48.736;9.176;2022-08-19T02:38:48;24.67;;;22.13;;
8881;SDS011;4477;48.736;9.176;2022-08-19T02:41:15;21.33;;;19.13;;
8881;SDS011;4477;48.736;9.176;2022-08-19T02:43:44;23.07;;;20.70;;
8881;SDS011;4477;48.736;9.176;2022-08-19T02:46:12;23.17;;;20.70;;
8881;SDS011;4477;48.736;9.176;2022-08-19T02:48:42;25.53;;;21.67;;
8881;SDS011;4477;48.736;9.176;2022-08-19T02:51:16;24.00;;;21.40;;
8881;SDS011;4477;48.736;9.176;2022-08-19T02:53:44;23.43;;;21.00;;
8881;SDS011;4477;48.736;9.176;2022-08-19T02:56:11;22.33;;;20.13;;
8881;SDS011;4477;48.736;9.176;2022-08-19T02:58:38;24.73;;;22.00;;
8881;SDS011;4477;48.736;9.176;2022-08-19T03:01:05;24.87;;;22.27;;
8881;SDS011;4477;48.736;9.176;2022-08-19T03:03:33;26.97;;;22.20;;
8881;SDS011;4477;48.736;9.176;2022-08-19T03:06:03;24.77;;;22.27;;
8881;SDS011;4477;48.736;9.176;2022-08-19T03:08:33;26.23;;;23.37;;
8881;SDS011;4477;48.736;9.176;2022-08-19T03:11:01;27.33;;;24.40;;
8881;SDS011;4477;48.736;9.176;2022-08-19T03:13:28;30.90;;;25.20;;
8881;SDS011;4477;48.736;9.176;2022-08-19T03:15:55;29.57;;;26.43;;
8881;SDS011;4477;48.736;9.176;2022-08-19T03:18:23;29.97;;;26.80;;
8881;SDS011;4477;48.736;9.176;2022-08-19T03:20:51;29.17;;;25.40;;
8881;SDS011;4477;48.736;9.176;2022-08-19T03:23:19;27.67;;;24.73;;
8881;SDS011;4477;48.736;9.176;2022-08-19T03:25:49;27.30;;;24.37;;
8881;SDS011;4477;48.736;9.176;2022-08-19T03:28:18;30.03;;;26.67;;
8881;SDS011;4477;48.736;9.176;2022-08-19T03:30:56;31.87;;;27.97;;
8881;SDS011;4477;48.736;9.176;2022-08-19T03:33:24;29.10;;;25.50;;
8881;SDS011;4477;48.736;9.176;2022-08-19T03:35:59;29.77;;;26.57;;
8881;SDS011;4477;48.736;9.176;2022-08-19T03:38:28;31.03;;;26.43;;
8881;SDS011;4477;48.736;9.176;2022-08-19T03:40:58;29.17;;;25.97;;
8881;SDS011;4477;48.736;9.176;2022-08-19T03:43:31;28.30;;;25.23;;
8881;SDS011;4477;48.736;9.176;2022-08-19T03:46:00;28.37;;;25.30;;
8881;SDS011;4477;48.736;9.176;2022-08-19T03:48:29;29.60;;;26.60;;
8881;SDS011;4477;48.736;9.176;2022-08-19T03:50:56;30.63;;;27.43;;
8881;SDS011;4477;48.736;9.176;2022-08-19T03:53:24;31.23;;;27.93;;
8881;SDS011;4477;48.736;9.176;2022-08-19T03:55:53;32.60;;;27.60;;
8881;SDS011;4477;48.736;9.176;2022-08-19T03:58:22;29.93;;;26.83;;
8881;SDS011;4477;48.736;9.176;2022-08-19T04:00:49;32.13;;;28.73;;
8881;SDS011;4477;48.736;9.176;2022-08-19T04:03:16;31.87;;;28.50;;
8881;SDS011;4477;48.736;9.176;2022-08-19T04:05:44;30.77;;;27.50;;
8881;SDS011;4477;48.736;9.176;2022-08-19T04:08:12;31.53;;;28.33;;
8881;SDS011;4477;48.736;9.176;2022-08-19T04:10:44;31.57;;;28.10;;
8881;SDS011;4477;48.736;9.176;2022-08-19T04:13:11;31.63;;;28.23;;
8881;SDS011;4477;48.736;9.176;2022-08-19T04:15:40;33.63;;;29.20;;
8881;SDS011;4477;48.736;9.176;2022-08-19T04:18:08;32.10;;;28.63;;
8881;SDS011;4477;48.736;9.176;2022-08-19T04:20:38;32.30;;;28.80;;
8881;SDS011;4477;48.736;9.176;2022-08-19T04:23:06;33.83;;;30.23;;
8881;SDS011;4477;48.736;9.176;2022-08-19T04:25:37;32.27;;;28.73;;
8881;SDS011;4477;48.736;9.176;2022-08-19T04:28:05;34.80;;;30.17;;
8881;SDS011;4477;48.736;9.176;2022-08-19T04:30:38;33.80;;;29.47;;
8881;SDS011;4477;48.736;9.176;2022-08-19T04:33:08;33.93;;;30.23;;
8881;SDS011;4477;48.736;9.176;2022-08-19T04:35:36;32.97;;;29.30;;
8881;SDS011;4477;48.736;9.176;2022-08-19T04:38:04;35.33;;;29.97;;
8881;SDS011;4477;48.736;9.176;2022-08-19T04:40:32;33.53;;;29.10;;
8881;SDS011;4477;48.736;9.176;2022-08-19T04:43:16;34.53;;;30.53;;
8881;SDS011;4477;48.736;9.176;2022-08-19T04:45:45;33.00;;;29.53;;
8881;SDS011;4477;48.736;9.176;2022-08-19T04:48:12;38.07;;;31.80;;
8881;SDS011;4477;48.736;9.176;2022-08-19T04:50:39;33.93;;;30.13;;
8881;SDS011;4477;48.736;9.176;2022-08-19T04:53:08;33.63;;;29.87;;
8881;SDS011;4477;48.736;9.176;2022-08-19T04:55:38;33.20;;;29.60;;
8881;SDS011;4477;48.736;9.176;2022-08-19T04:58:06;33.23;;;29.87;;
8881;SDS011;4477;48.736;9.176;2022-08-19T05:00:33;31.00;;;27.80;;
8881;SDS011;4477;48.736;9.176;2022-08-19T05:03:01;31.37;;;28.03;;
8881;SDS011;4477;48.736;9.176;2022-08-19T05:05:28;33.00;;;28.37;;
8881;SDS011;4477;48.736;9.176;2022-08-19T05:07:56;32.17;;;28.77;;
8881;SDS011;4477;48.736;9.176;2022-08-19T05:10:23;31.50;;;28.23;;
8881;SDS011;4477;48.736;9.176;2022-08-19T05:12:50;33.23;;;29.63;;
8881;SDS011;4477;48.736;9.176;2022-08-19T05:15:17;31.77;;;28.37;;
8881;SDS011;4477;48.736;9.176;2022-08-19T05:17:44;31.53;;;28.33;;
8881;SDS011;4477;48.736;9.176;2022-08-19T05:20:27;31.83;;;27.83;;
8881;SDS011;4477;48.736;9.176;2022-08-19T05:23:11;31.67;;;28.30;;
8881;SDS011;4477;48.736;9.176;2022-08-19T05:25:42;32.83;;;28.17;;
8881;SDS011;4477;48.736;9.176;2022-08-19T05:28:09;30.73;;;27.17;;
8881;SDS011;4477;48.736;9.176;2022-08-19T05:30:36;30.87;;;27.33;;
8881;SDS011;4477;48.736;9.176;2022-08-19T05:33:03;30.80;;;27.47;;
8881;SDS011;4477;48.736;9.176;2022-08-19T05:35:31;33.63;;;28.07;;
8881;SDS011;4477;48.736;9.176;2022-08-19T05:37:58;30.33;;;27.13;;
8881;SDS011;4477;48.736;9.176;2022-08-19T05:40:25;30.60;;;27.37;;
8881;SDS011;4477;48.736;9.176;2022-08-19T05:42:52;34.07;;;28.40;;
8881;SDS011;4477;48.736;9.176;2022-08-19T05:45:19;30.10;;;26.77;;
8881;SDS011;4477;48.736;9.176;2022-08-19T05:47:46;28.70;;;25.80;;
8881;SDS011;4477;48.736;9.176;2022-08-19T05:50:14;28.70;;;25.77;;
8881;SDS011;4477;48.736;9.176;2022-08-19T05:52:43;30.67;;;27.37;;
8881;SDS011;4477;48.736;9.176;2022-08-19T05:55:11;30.43;;;26.57;;
8881;SDS011;4477;48.736;9.176;2022-08-19T05:57:38;29.30;;;26.20;;
8881;SDS011;4477;48.736;9.176;2022-08-19T06:00:05;30.17;;;27.03;;
8881;SDS011;4477;48.736;9.176;2022-08-19T06:02:35;28.70;;;25.60;;
8881;SDS011;4477;48.736;9.176;2022-08-19T06:05:02;28.73;;;25.70;;
8881;SDS011;4477;48.736;9.176;2022-08-19T06:07:31;28.93;;;25.93;;
8881;SDS011;4477;48.736;9.176;2022-08-19T06:10:00;29.27;;;26.13;;
8881;SDS011;4477;48.736;9.176;2022-08-19T06:12:27;29.37;;;26.07;;
8881;SDS011;4477;48.736;9.176;2022-08-19T06:14:59;28.90;;;25.80;;
8881;SDS011;4477;48.736;9.176;2022-08-19T06:17:27;28.33;;;25.43;;
8881;SDS011;4477;48.736;9.176;2022-08-19T06:19:55;28.97;;;25.83;;
8881;SDS011;4477;48.736;9.176;2022-08-19T06:22:21;28.47;;;25.47;;
8881;SDS011;4477;48.736;9.176;2022-08-19T06:24:51;27.53;;;24.77;;
8881;SDS011;4477;48.736;9.176;2022-08-19T06:27:20;27.83;;;24.83;;
8881;SDS011;4477;48.736;9.176;2022-08-19T06:29:47;30.13;;;26.90;;
8881;SDS011;4477;48.736;9.176;2022-08-19T06:32:15;29.53;;;26.57;;
8881;SDS011;4477;48.736;9.176;2022-08-19T06:34:43;29.33;;;26.33;;
8881;SDS011;4477;48.736;9.176;2022-08-19T06:37:11;29.53;;;26.43;;
8881;SDS011;4477;48.736;9.176;2022-08-19T06:39:38;31.93;;;28.47;;
8881;SDS011;4477;48.736;9.176;2022-08-19T06:42:07;33.07;;;29.57;;
8881;SDS011;4477;48.736;9.176;2022-08-19T06:44:40;32.57;;;29.07;;
8881;SDS011;4477;48.736;9.176;2022-08-19T06:47:09;33.40;;;29.80;;
8881;SDS011;4477;48.736;9.176;2022-08-19T06:49:38;35.30;;;30.50;;
8881;SDS011;4477;48.736;9.176;2022-08-19T06:52:05;35.63;;;31.93;;
8881;SDS011;4477;48.736;9.176;2022-08-19T06:54:32;35.20;;;31.43;;
8881;SDS011;4477;48.736;9.176;2022-08-19T06:57:00;38.77;;;33.83;;
8881;SDS011;4477;48.736;9.176;2022-08-19T06:59:28;35.83;;;31.90;;
8881;SDS011;4477;48.736;9.176;2022-08-19T07:02:00;37.73;;;33.63;;
8881;SDS011;4477;48.736;9.176;2022-08-19T07:04:30;39.37;;;35.07;;
8881;SDS011;4477;48.736;9.176;2022-08-19T07:06:59;36.67;;;32.37;;
8881;SDS011;4477;48.736;9.176;2022-08-19T07:09:28;36.23;;;32.43;;
8881;SDS011;4477;48.736;9.176;2022-08-19T07:11:55;38.03;;;33.33;;
8881;SDS011;4477;48.736;9.176;2022-08-19T07:14:23;35.97;;;32.33;;
8881;SDS011;4477;48.736;9.176;2022-08-19T07:16:52;37.03;;;33.10;;
8881;SDS011;4477;48.736;9.176;2022-08-19T07:19:23;36.00;;;32.00;;
8881;SDS011;4477;48.736;9.176;2022-08-19T07:21:52;36.93;;;32.97;;
8881;SDS011;4477;48.736;9.176;2022-08-19T07:24:20;35.80;;;32.17;;
8881;SDS011;4477;48.736;9.176;2022-08-19T07:26:51;36.07;;;32.03;;
8881;SDS011;4477;48.736;9.176;2022-08-19T07:29:22;36.43;;;32.43;;
8881;SDS011;4477;48.736;9.176;2022-08-19T07:31:49;36.70;;;32.73;;
8881;SDS011;4477;48.736;9.176;2022-08-19T07:34:17;34.90;;;31.30;;
8881;SDS011;4477;48.736;9.176;2022-08-19T07:36:46;33.83;;;29.63;;
8881;SDS011;4477;48.736;9.176;2022-08-19T07:39:14;34.47;;;30.77;;
8881;SDS011;4477;48.736;9.176;2022-08-19T07:41:43;35.57;;;31.77;;
8881;SDS011;4477;48.736;9.176;2022-08-19T07:44:11;32.70;;;29.37;;
8881;SDS011;4477;48.736;9.176;2022-08-19T07:46:40;33.93;;;30.33;;
8881;SDS011;4477;48.736;9.176;2022-08-19T07:49:09;33.23;;;29.70;;
8881;SDS011;4477;48.736;9.176;2022-08-19T07:51:42;33.77;;;29.93;;
8881;SDS011;4477;48.736;9.176;2022-08-19T07:54:11;33.13;;;29.63;;
8881;SDS011;4477;48.736;9.176;2022-08-19T07:56:38;37.03;;;32.80;;
8881;SDS011;4477;48.736;9.176;2022-08-19T07:59:05;35.67;;;31.80;;
8881;SDS011;4477;48.736;9.176;2022-08-19T08:01:33;36.43;;;32.57;;
8881;SDS011;4477;48.736;9.176;2022-08-19T08:04:00;39.53;;;33.97;;
8881;SDS011;4477;48.736;9.176;2022-08-19T08:06:44;36.53;;;32.53;;
8881;SDS011;4477;48.736;9.176;2022-08-19T08:09:31;39.70;;;35.40;;
8881;SDS011;4477;48.736;9.176;2022-08-19T08:12:01;41.67;;;34.93;;
8881;SDS011;4477;48.736;9.176;2022-08-19T08:14:32;39.27;;;35.07;;
8881;SDS011;4477;48.736;9.176;2022-08-19T08:17:01;41.17;;;35.93;;
8881;SDS011;4477;48.736;9.176;2022-08-19T08:19:29;43.87;;;36.57;;
8881;SDS011;4477;48.736;9.176;2022-08-19T08:21:57;46.20;;;37.70;;
8881;SDS011;4477;48.736;9.176;2022-08-19T08:24:25;43.23;;;36.73;;
8881;SDS011;4477;48.736;9.176;2022-08-19T08:26:55;50.00;;;41.10;;
8881;SDS011;4477;48.736;9.176;2022-08-19T08:29:23;55.60;;;41.00;;
8881;SDS011;4477;48.736;9.176;2022-08-19T08:31:51;45.93;;;39.50;;
8881;SDS011;4477;48.736;9.176;2022-08-19T08:34:19;47.70;;;39.67;;
8881;SDS011;4477;48.736;9.176;2022-08-19T08:36:47;46.57;;;39.60;;
8881;SDS011;4477;48.736;9.176;2022-08-19T08:39:17;45.53;;;39.50;;
8881;SDS011;4477;48.736;9.176;2022-08-19T08:41:47;46.57;;;40.53;;
8881;SDS011;4477;48.736;9.176;2022-08-19T08:44:21;45.93;;;38.07;;
8881;SDS011;4477;48.736;9.176;2022-08-19T08:47:05;46.90;;;39.37;;
8881;SDS011;4477;48.736;9.176;2022-08-19T08:49:39;48.23;;;40.23;;
8881;SDS011;4477;48.736;9.176;2022-08-19T08:52:13;51.23;;;40.43;;
8881;SDS011;4477;48.736;9.176;2022-08-19T08:54:45;53.37;;;41.50;;
8881;SDS011;4477;48.736;9.176;2022-08-19T08:57:15;48.03;;;40.77;;
8881;SDS011;4477;48.736;9.176;2022-08-19T08:59:47;51.13;;;41.00;;
8881;SDS011;4477;48.736;9.176;2022-08-19T09:02:16;47.33;;;38.70;;
8881;SDS011;4477;48.736;9.176;2022-08-19T09:04:44;46.20;;;38.90;;
8881;SDS011;4477;48.736;9.176;2022-08-19T09:07:16;48.23;;;40.57;;
8881;SDS011;4477;48.736;9.176;2022-08-19T09:09:52;43.83;;;38.00;;
8881;SDS011;4477;48.736;9.176;2022-08-19T09:12:25;43.97;;;39.13;;
8881;SDS011;4477;48.736;9.176;2022-08-19T09:15:05;43.90;;;38.37;;
8881;SDS011;4477;48.736;9.176;2022-08-19T09:17:35;46.00;;;38.17;;
8881;SDS011;4477;48.736;9.176;2022-08-19T09:20:04;42.20;;;37.63;;
8881;SDS011;4477;48.736;9.176;2022-08-19T09:22:40;42.30;;;36.60;;
8881;SDS011;4477;48.736;9.176;2022-08-19T09:25:09;41.10;;;36.80;;
8881;SDS011;4477;48.736;9.176;2022-08-19T09:27:38;41.77;;;36.50;;
8881;SDS011;4477;48.736;9.176;2022-08-19T09:30:09;41.77;;;37.27;;
8881;SDS011;4477;48.736;9.176;2022-08-19T09:32:39;41.10;;;36.70;;
8881;SDS011;4477;48.736;9.176;2022-08-19T09:35:07;39.90;;;35.70;;
8881;SDS011;4477;48.736;9.176;2022-08-19T09:37:35;40.43;;;34.97;;
8881;SDS011;4477;48.736;9.176;2022-08-19T09:40:02;38.00;;;33.93;;
8881;SDS011;4477;48.736;9.176;2022-08-19T09:42:29;38.60;;;34.43;;
8881;SDS011;4477;48.736;9.176;2022-08-19T09:44:57;39.53;;;35.33;;
8881;SDS011;4477;48.736;9.176;2022-08-19T09:47:25;41.03;;;36.60;;
8881;SDS011;4477;48.736;9.176;2022-08-19T09:49:52;40.93;;;35.33;;
8881;SDS011;4477;48.736;9.176;2022-08-19T09:52:20;39.90;;;35.67;;
8881;SDS011;4477;48.736;9.176;2022-08-19T09:54:47;38.47;;;34.30;;
8881;SDS011;4477;48.736;9.176;2022-08-19T09:57:17;37.53;;;33.10;;
8881;SDS011;4477;48.736;9.176;2022-08-19T09:59:44;36.07;;;32.17;;
8881;SDS011;4477;48.736;9.176;2022-08-19T10:02:11;36.67;;;32.63;;
8881;SDS011;4477;48.736;9.176;2022-08-19T10:04:41;36.90;;;32.83;;
8881;SDS011;4477;48.736;9.176;2022-08-19T10:07:25;37.63;;;33.50;;
8881;SDS011;4477;48.736;9.176;2022-08-19T10:09:53;37.23;;;33.37;;
8881;SDS011;4477;48.736;9.176;2022-08-19T10:12:20;38.47;;;34.33;;
8881;SDS011;4477;48.736;9.176;2022-08-19T10:14:47;38.17;;;33.30;;
8881;SDS011;4477;48.736;9.176;2022-08-19T10:17:16;35.43;;;31.60;;
8881;SDS011;4477;48.736;9.176;2022-08-19T10:19:44;32.13;;;28.97;;
8881;SDS011;4477;48.736;9.176;2022-08-19T10:22:12;33.83;;;30.33;;
8881;SDS011;4477;48.736;9.176;2022-08-19T10:24:39;38.83;;;31.40;;
8881;SDS011;4477;48.736;9.176;2022-08-19T10:27:06;32.73;;;29.37;;
8881;SDS011;4477;48.736;9.176;2022-08-19T10:29:34;34.33;;;30.70;;
8881;SDS011;4477;48.736;9.176;2022-08-19T10:32:02;34.17;;;30.47;;
8881;SDS011;4477;48.736;9.176;2022-08-19T10:34:33;33.27;;;29.67;;
8881;SDS011;4477;48.736;9.176;2022-08-19T10:37:03;31.33;;;28.00;;
8881;SDS011;4477;48.736;9.176;2022-08-19T10:39:31;33.53;;;30.03;;
8881;SDS011;4477;48.736;9.176;2022-08-19T10:42:03;34.50;;;30.83;;
8881;SDS011;4477;48.736;9.176;2022-08-19T10:44:32;35.13;;;31.33;;
8881;SDS011;4477;48.736;9.176;2022-08-19T10:47:00;33.83;;;30.27;;
8881;SDS011;4477;48.736;9.176;2022-08-19T10:49:27;37.73;;;29.60;;
8881;SDS011;4477;48.736;9.176;2022-08-19T10:51:55;34.13;;;30.53;;
8881;SDS011;4477;48.736;9.176;2022-08-19T10:54:41;33.57;;;30.27;;
8881;SDS011;4477;48.736;9.176;2022-08-19T10:57:25;33.57;;;30.07;;
8881;SDS011;4477;48.736;9.176;2022-08-19T10:59:56;32.37;;;28.90;;
8881;SDS011;4477;48.736;9.176;2022-08-19T11:02:23;34.57;;;28.93;;
8881;SDS011;4477;48.736;9.176;2022-08-19T11:04:50;28.50;;;25.40;;
8881;SDS011;4477;48.736;9.176;2022-08-19T11:07:17;27.93;;;25.13;;
8881;SDS011;4477;48.736;9.176;2022-08-19T11:09:45;27.33;;;24.53;;
8881;SDS011;4477;48.736;9.176;2022-08-19T11:12:12;26.30;;;23.20;;
8881;SDS011;4477;48.736;9.176;2022-08-19T11:14:40;25.23;;;22.73;;
8881;SDS011;4477;48.736;9.176;2022-08-19T11:17:07;26.87;;;24.00;;
8881;SDS011;4477;48.736;9.176;2022-08-19T11:19:35;24.53;;;21.93;;
8881;SDS011;4477;48.736;9.176;2022-08-19T11:22:02;25.73;;;23.23;;
8881;SDS011;4477;48.736;9.176;2022-08-19T11:24:30;25.20;;;22.50;;
8881;SDS011;4477;48.736;9.176;2022-08-19T11:27:02;27.73;;;24.93;;
8881;SDS011;4477;48.736;9.176;2022-08-19T11:29:30;29.30;;;26.50;;
8881;SDS011;4477;48.736;9.176;2022-08-19T11:31:59;24.77;;;22.23;;
8881;SDS011;4477;48.736;9.176;2022-08-19T11:34:29;27.77;;;25.10;;
8881;SDS011;4477;48.736;9.176;2022-08-19T11:36:57;28.33;;;23.57;;
8881;SDS011;4477;48.736;9.176;2022-08-19T11:39:25;25.40;;;22.70;;
8881;SDS011;4477;48.736;9.176;2022-08-19T11:41:53;23.40;;;21.07;;
8881;SDS011;4477;48.736;9.176;2022-08-19T11:44:22;22.53;;;20.23;;
8881;SDS011;4477;48.736;9.176;2022-08-19T11:46:49;23.17;;;20.77;;
8881;SDS011;4477;48.736;9.176;2022-08-19T11:49:17;22.57;;;20.40;;
8881;SDS011;4477;48.736;9.176;2022-08-19T11:51:46;22.50;;;20.00;;
8881;SDS011;4477;48.736;9.176;2022-08-19T11:54:15;22.33;;;20.13;;
8881;SDS011;4477;48.736;9.176;2022-08-19T11:56:43;22.57;;;20.30;;
8881;SDS011;4477;48.736;9.176;2022-08-19T11:59:10;19.90;;;17.73;;
8881;SDS011;4477;48.736;9.176;2022-08-19T12:01:39;19.70;;;17.73;;
8881;SDS011;4477;48.736;9.176;2022-08-19T12:04:07;19.97;;;17.70;;
8881;SDS011;4477;48.736;9.176;2022-08-19T12:06:36;20.17;;;18.20;;
8881;SDS011;4477;48.736;9.176;2022-08-19T12:09:05;15.87;;;14.17;;
8881;SDS011;4477;48.736;9.176;2022-08-19T12:11:35;16.47;;;14.70;;
8881;SDS011;4477;48.736;9.176;2022-08-19T12:14:03;16.63;;;15.13;;
8881;SDS011;4477;48.736;9.176;2022-08-19T12:16:31;17.67;;;15.87;;
8881;SDS011;4477;48.736;9.176;2022-08-19T12:19:00;19.77;;;17.73;;
8881;SDS011;4477;48.736;9.176;2022-08-19T12:21:30;20.30;;;18.30;;
8881;SDS011;4477;48.736;9.176;2022-08-19T12:23:58;19.70;;;17.67;;
8881;SDS011;4477;48.736;9.176;2022-08-19T12:26:28;19.87;;;17.97;;
8881;SDS011;4477;48.736;9.176;2022-08-19T12:28:56;18.97;;;17.23;;
8881;SDS011;4477;48.736;9.176;2022-08-19T12:31:24;21.17;;;19.17;;
8881;SDS011;4477;48.736;9.176;2022-08-19T12:33:51;22.97;;;20.93;;
8881;SDS011;4477;48.736;9.176;2022-08-19T12:36:19;27.27;;;24.37;;
8881;SDS011;4477;48.736;9.176;2022-08-19T12:38:47;31.17;;;27.93;;
8881;SDS011;4477;48.736;9.176;2022-08-19T12:41:14;34.50;;;30.87;;
8881;SDS011;4477;48.736;9.176;2022-08-19T12:43:43;37.77;;;33.77;;
8881;SDS011;4477;48.736;9.176;2022-08-19T12:46:10;37.80;;;33.87;;
8881;SDS011;4477;48.736;9.176;2022-08-19T12:48:38;43.00;;;37.17;;
8881;SDS011;4477;48.736;9.176;2022-08-19T12:51:10;39.93;;;35.60;;
8881;SDS011;4477;48.736;9.176;2022-08-19T12:53:40;43.30;;;38.53;;
8881;SDS011;4477;48.736;9.176;2022-08-19T12:56:07;46.77;;;41.00;;
8881;SDS011;4477;48.736;9.176;2022-08-19T12:58:36;49.60;;;41.20;;
8881;SDS011;4477;48.736;9.176;2022-08-19T13:01:06;46.87;;;41.70;;
8881;SDS011;4477;48.736;9.176;2022-08-19T13:03:35;48.03;;;41.20;;
8881;SDS011;4477;48.736;9.176;2022-08-19T13:06:02;47.47;;;40.83;;
8881;SDS011;4477;48.736;9.176;2022-08-19T13:08:29;48.13;;;42.93;;
8881;SDS011;4477;48.736;9.176;2022-08-19T13:10:58;46.90;;;41.80;;
8881;SDS011;4477;48.736;9.176;2022-08-19T13:13:35;46.77;;;40.33;;
8881;SDS011;4477;48.736;9.176;2022-08-19T13:16:03;45.17;;;40.37;;
8881;SDS011;4477;48.736;9.176;2022-08-19T13:18:30;46.27;;;39.23;;
8881;SDS011;4477;48.736;9.176;2022-08-19T13:20:57;42.93;;;38.43;;
8881;SDS011;4477;48.736;9.176;2022-08-19T13:23:28;41.30;;;36.90;;
8881;SDS011;4477;48.736;9.176;2022-08-19T13:26:00;42.97;;;37.00;;
8881;SDS011;4477;48.736;9.176;2022-08-19T13:28:28;42.67;;;38.23;;
8881;SDS011;4477;48.736;9.176;2022-08-19T13:31:16;41.93;;;37.33;;
8881;SDS011;4477;48.736;9.176;2022-08-19T13:34:01;43.03;;;38.40;;
8881;SDS011;4477;48.736;9.176;2022-08-19T13:36:28;43.47;;;38.80;;
8881;SDS011;4477;48.736;9.176;2022-08-19T13:38:55;43.50;;;37.60;;
8881;SDS011;4477;48.736;9.176;2022-08-19T13:41:24;48.47;;;40.73;;
8881;SDS011;4477;48.736;9.176;2022-08-19T13:43:51;44.57;;;39.70;;
8881;SDS011;4477;48.736;9.176;2022-08-19T13:46:19;44.40;;;39.50;;
8881;SDS011;4477;48.736;9.176;2022-08-19T13:48:46;44.20;;;39.40;;
8881;SDS011;4477;48.736;9.176;2022-08-19T13:51:14;45.70;;;40.70;;
8881;SDS011;4477;48.736;9.176;2022-08-19T13:53:41;46.80;;;41.77;;
8881;SDS011;4477;48.736;9.176;2022-08-19T13:56:10;47.97;;;42.73;;
8881;SDS011;4477;48.736;9.176;2022-08-19T13:58:39;52.23;;;44.83;;
8881;SDS011;4477;48.736;9.176;2022-08-19T14:01:08;52.37;;;44.20;;
8881;SDS011;4477;48.736;9.176;2022-08-19T14:03:36;51.23;;;44.07;;
8881;SDS011;4477;48.736;9.176;2022-08-19T14:06:04;49.67;;;44.37;;
8881;SDS011;4477;48.736;9.176;2022-08-19T14:08:31;48.10;;;42.90;;
8881;SDS011;4477;48.736;9.176;2022-08-19T14:10:58;48.00;;;42.77;;
8881;SDS011;4477;48.736;9.176;2022-08-19T14:13:25;48.73;;;43.47;;
8881;SDS011;4477;48.736;9.176;2022-08-19T14:15:53;49.87;;;43.30;;
8881;SDS011;4477;48.736;9.176;2022-08-19T14:18:20;49.77;;;44.20;;
8881;SDS011;4477;48.736;9.176;2022-08-19T14:20:47;48.07;;;42.53;;
8881;SDS011;4477;48.736;9.176;2022-08-19T14:23:14;46.20;;;41.03;;
8881;SDS011;4477;48.736;9.176;2022-08-19T14:25:42;45.70;;;40.83;;
8881;SDS011;4477;48.736;9.176;2022-08-19T14:28:11;45.80;;;38.53;;
8881;SDS011;4477;48.736;9.176;2022-08-19T14:30:38;41.53;;;37.03;;
8881;SDS011;4477;48.736;9.176;2022-08-19T14:33:06;41.70;;;37.03;;
8881;SDS011;4477;48.736;9.176;2022-08-19T14:35:34;38.03;;;34.30;;
8881;SDS011;4477;48.736;9.176;2022-08-19T14:38:01;39.57;;;35.50;;
8881;SDS011;4477;48.736;9.176;2022-08-19T14:40:30;38.43;;;34.47;;
8881;SDS011;4477;48.736;9.176;2022-08-19T14:42:58;35.83;;;32.23;;
8881;SDS011;4477;48.736;9.176;2022-08-19T14:45:29;35.43;;;31.97;;
8881;SDS011;4477;48.736;9.176;2022-08-19T14:47:58;35.83;;;32.23;;
8881;SDS011;4477;48.736;9.176;2022-08-19T14:50:26;34.67;;;31.30;;
8881;SDS011;4477;48.736;9.176;2022-08-19T14:52:57;34.03;;;30.53;;
8881;SDS011;4477;48.736;9.176;2022-08-19T14:55:26;35.03;;;31.43;;
8881;SDS011;4477;48.736;9.176;2022-08-19T14:57:53;32.13;;;28.83;;